Ariel, Mississippi
Current Conditions -  °F | °C
As of 4:53 PM on Saturday 25 Oct 2014 (Local Time) from KMCB Reporting Station
Clear Clear  
Wind Chill: 27°   Ceiling: Unl
Heat Index: 27°   Visibility: 10mi
Dew Point: 12°   Wind: 8mph
Humidity: 38%   Direction: 340°NNW
Pressure: 30.07"   Gusts: NA
Location:  31.1819°N, 90.9008°W
Report Text: KMCB 252153Z AUTO 34007KT 10SM CLR 27/12 A3007 RMK AO2 SLP179 T02720117
Loading
Personal Weather Stations






























Interactive Weather Map
Tropical Storm Tracking
New forecast layout! Learn more

10-Day Weather Forecast

Advertisements
Track Severe Weather on mobile